createdAt,value
2018-12-22T00:02:05.503Z,12.70
2018-12-22T00:04:39.923Z,13.10
2018-12-22T00:07:14.175Z,14.17
2018-12-22T00:09:48.567Z,12.77
2018-12-22T00:12:22.788Z,12.50
2018-12-22T00:14:57.157Z,12.80
2018-12-22T00:17:31.712Z,13.37
2018-12-22T00:20:06.176Z,12.70
2018-12-22T00:22:40.653Z,14.47
2018-12-22T00:25:15.243Z,13.80
2018-12-22T00:27:49.927Z,12.90
2018-12-22T00:30:24.290Z,14.63
2018-12-22T00:32:58.752Z,14.60
2018-12-22T00:35:33.339Z,14.27
2018-12-22T00:38:07.809Z,14.67
2018-12-22T00:40:42.128Z,14.63
2018-12-22T00:43:16.507Z,14.30
2018-12-22T00:45:50.867Z,14.87
2018-12-22T00:48:25.367Z,15.70
2018-12-22T00:50:59.647Z,13.63
2018-12-22T00:53:34.692Z,13.50
2018-12-22T00:56:09.074Z,15.20
2018-12-22T00:58:43.655Z,15.00
2018-12-22T01:01:17.873Z,13.80
2018-12-22T01:03:52.700Z,15.13
2018-12-22T01:06:27.140Z,13.87
2018-12-22T01:09:01.505Z,15.07
2018-12-22T01:11:36.591Z,14.07
2018-12-22T01:14:10.925Z,13.30
2018-12-22T01:16:45.644Z,14.57
2018-12-22T01:19:20.540Z,13.60
2018-12-22T01:21:55.277Z,14.17
2018-12-22T01:24:29.746Z,13.00
2018-12-22T01:27:04.300Z,12.87
2018-12-22T01:29:39.249Z,12.00
2018-12-22T01:32:13.969Z,13.13
2018-12-22T01:34:48.740Z,13.53
2018-12-22T01:37:23.074Z,12.27
2018-12-22T01:39:57.634Z,12.50
2018-12-22T01:42:32.691Z,12.13
2018-12-22T01:45:07.620Z,12.53
2018-12-22T01:47:41.963Z,13.10
2018-12-22T01:50:16.531Z,11.27
2018-12-22T01:52:51.346Z,13.90
2018-12-22T01:55:25.761Z,11.53
2018-12-22T01:58:00.214Z,11.10
2018-12-22T02:00:34.576Z,11.63
2018-12-22T02:03:09.498Z,11.80
2018-12-22T02:05:43.717Z,11.30
2018-12-22T02:08:18.634Z,11.70
2018-12-22T02:10:53.198Z,11.53
2018-12-22T02:13:27.415Z,9.53
2018-12-22T02:16:01.724Z,9.73
2018-12-22T02:18:36.021Z,10.70
2018-12-22T02:21:10.534Z,10.80
2018-12-22T02:23:45.535Z,9.13
2018-12-22T02:26:20.069Z,10.13
2018-12-22T02:28:56.817Z,9.93
2018-12-22T02:31:30.784Z,10.10
2018-12-22T02:34:05.017Z,9.00
2018-12-22T02:36:40.442Z,10.40
2018-12-22T02:39:14.665Z,9.97
2018-12-22T02:41:48.885Z,10.47
2018-12-22T02:44:23.283Z,9.40
2018-12-22T02:46:57.911Z,11.07
2018-12-22T02:49:32.834Z,9.33
2018-12-22T02:52:07.412Z,10.07
2018-12-22T02:54:41.775Z,9.93
2018-12-22T02:57:15.986Z,8.23
2018-12-22T02:59:50.877Z,8.90
2018-12-22T03:02:25.692Z,8.73
2018-12-22T03:05:00.074Z,9.53
2018-12-22T03:07:34.419Z,9.80
2018-12-22T03:10:08.847Z,9.60
2018-12-22T03:12:43.680Z,8.73
2018-12-22T03:15:18.414Z,8.40
2018-12-22T03:17:52.607Z,9.37
2018-12-22T03:20:26.999Z,8.20
2018-12-22T03:23:01.389Z,7.80
2018-12-22T03:25:35.843Z,8.60
2018-12-22T03:28:10.613Z,7.57
2018-12-22T03:30:45.001Z,7.87
2018-12-22T03:33:19.218Z,8.50
2018-12-22T03:35:53.552Z,7.73
2018-12-22T03:38:28.178Z,8.53
2018-12-22T03:41:02.443Z,7.37
2018-12-22T03:43:37.107Z,7.20
2018-12-22T03:46:11.627Z,8.30
2018-12-22T03:48:46.565Z,7.60
2018-12-22T03:51:21.103Z,6.77
2018-12-22T03:53:56.228Z,7.93
2018-12-22T03:56:30.956Z,6.43
2018-12-22T03:59:05.188Z,7.60
2018-12-22T04:04:20.358Z,7.87
2018-12-22T04:06:54.607Z,7.97
2018-12-22T04:09:29.349Z,6.63
2018-12-22T04:12:03.617Z,7.13
2018-12-22T04:14:38.461Z,7.03
2018-12-22T04:17:12.669Z,6.17
2018-12-22T04:19:47.601Z,7.07
2018-12-22T04:22:22.325Z,7.37
2018-12-22T04:24:56.694Z,7.17
2018-12-22T04:27:31.257Z,6.60
2018-12-22T04:30:05.687Z,7.27
2018-12-22T04:32:40.500Z,6.37
2018-12-22T04:35:15.242Z,6.80
2018-12-22T04:37:50.098Z,6.60
2018-12-22T04:40:24.323Z,5.83
2018-12-22T04:42:58.938Z,5.57
2018-12-22T04:45:33.314Z,6.67
2018-12-22T04:48:08.171Z,6.40
2018-12-22T04:50:43.101Z,5.40
2018-12-22T04:53:17.826Z,6.63
2018-12-22T04:55:52.213Z,6.30
2018-12-22T04:58:26.885Z,5.87
2018-12-22T05:01:01.317Z,5.30
2018-12-22T05:03:36.521Z,7.10
2018-12-22T05:06:11.385Z,5.27
2018-12-22T05:08:45.770Z,6.27
2018-12-22T05:11:20.511Z,5.67
2018-12-22T05:13:55.223Z,5.73
2018-12-22T05:16:29.564Z,5.77
2018-12-22T05:19:04.217Z,5.60
2018-12-22T05:21:38.662Z,5.20
2018-12-22T05:24:12.879Z,6.30
2018-12-22T05:26:47.547Z,5.13
2018-12-22T05:29:22.377Z,5.33
2018-12-22T05:31:56.601Z,4.60
2018-12-22T05:34:31.082Z,6.17
2018-12-22T05:37:05.443Z,4.60
2018-12-22T05:39:39.855Z,4.50
2018-12-22T05:42:15.245Z,4.87
2018-12-22T05:44:49.614Z,4.23
2018-12-22T05:47:24.350Z,5.07
2018-12-22T05:49:58.688Z,4.97
2018-12-22T05:52:33.480Z,5.53
2018-12-22T05:55:08.226Z,5.03
2018-12-22T05:57:42.454Z,5.00
2018-12-22T06:00:17.283Z,5.03
2018-12-22T06:02:51.811Z,4.97
2018-12-22T06:05:26.206Z,3.67
2018-12-22T06:08:01.241Z,4.10
2018-12-22T06:10:35.986Z,5.13
2018-12-22T06:13:10.187Z,4.43
2018-12-22T06:15:44.509Z,5.43
2018-12-22T06:18:19.249Z,4.83
2018-12-22T06:20:54.075Z,4.53
2018-12-22T06:23:28.894Z,4.83
2018-12-22T06:26:03.744Z,4.50
2018-12-22T06:28:37.995Z,4.40
2018-12-22T06:31:12.433Z,3.90
2018-12-22T06:33:47.059Z,4.23
2018-12-22T06:36:21.745Z,4.37
2018-12-22T06:38:56.123Z,4.73
2018-12-22T06:41:30.881Z,4.47
2018-12-22T06:44:05.124Z,4.23
2018-12-22T06:46:39.478Z,3.70
2018-12-22T06:49:14.157Z,4.00
2018-12-22T06:51:48.601Z,4.27
2018-12-22T06:54:23.304Z,3.70
2018-12-22T06:56:57.671Z,3.40
2018-12-22T06:59:31.938Z,3.50
2018-12-22T07:02:06.438Z,3.73
2018-12-22T07:04:40.802Z,3.73
2018-12-22T07:07:15.253Z,4.20
2018-12-22T07:09:49.702Z,3.40
2018-12-22T07:12:24.181Z,3.43
2018-12-22T07:14:58.732Z,3.23
2018-12-22T07:17:32.980Z,3.60
2018-12-22T07:20:07.809Z,3.60
2018-12-22T07:22:42.634Z,3.40
2018-12-22T07:25:17.562Z,3.93
2018-12-22T07:27:52.078Z,4.13
2018-12-22T07:30:26.684Z,3.30
2018-12-22T07:33:01.571Z,3.80
2018-12-22T07:35:35.972Z,3.37
2018-12-22T07:38:10.342Z,3.27
2018-12-22T07:40:44.704Z,3.37
2018-12-22T07:43:19.514Z,3.43
2018-12-22T07:45:54.341Z,3.23
2018-12-22T07:48:28.902Z,3.37
2018-12-22T07:51:03.272Z,3.57
2018-12-22T07:53:37.750Z,3.40
2018-12-22T07:56:12.652Z,3.60
2018-12-22T07:58:46.994Z,2.43
2018-12-22T08:01:21.218Z,3.13
2018-12-22T08:03:55.550Z,3.70
2018-12-22T08:06:29.880Z,3.17
2018-12-22T08:09:06.106Z,2.80
2018-12-22T08:11:40.472Z,3.10
2018-12-22T08:14:15.029Z,3.17
2018-12-22T08:16:49.756Z,2.47
2018-12-22T08:19:23.978Z,2.83
2018-12-22T08:21:59.014Z,3.13
2018-12-22T08:24:33.319Z,2.80
2018-12-22T08:27:07.924Z,2.80
2018-12-22T08:29:42.474Z,2.50
2018-12-22T08:32:16.833Z,3.33
2018-12-22T08:34:51.192Z,2.83
2018-12-22T08:37:26.037Z,2.90
2018-12-22T08:40:00.692Z,3.80
2018-12-22T08:42:35.399Z,4.87
2018-12-22T08:45:09.768Z,4.40
2018-12-22T08:47:44.238Z,6.00
2018-12-22T08:50:18.623Z,4.00
2018-12-22T08:52:52.975Z,3.93
2018-12-22T08:55:27.901Z,4.03
2018-12-22T08:58:05.540Z,3.70
2018-12-22T09:00:39.914Z,3.30
2018-12-22T09:03:14.348Z,3.20
2018-12-22T09:05:49.074Z,2.90
2018-12-22T09:08:23.896Z,3.40
2018-12-22T09:10:58.307Z,3.27
2018-12-22T09:13:33.067Z,4.30
2018-12-22T09:16:08.132Z,4.17
2018-12-22T09:18:42.575Z,4.30
2018-12-22T09:21:17.445Z,3.97
2018-12-22T09:23:52.345Z,3.57
2018-12-22T09:26:27.103Z,3.87
2018-12-22T09:29:02.021Z,3.50
2018-12-22T09:31:36.969Z,3.33
2018-12-22T09:34:13.419Z,3.53
2018-12-22T09:36:48.246Z,2.73
2018-12-22T09:39:22.795Z,2.87
2018-12-22T09:41:57.126Z,3.17
2018-12-22T09:44:31.453Z,2.70
2018-12-22T09:47:05.663Z,2.87
2018-12-22T09:49:40.070Z,3.63
2018-12-22T09:52:14.912Z,3.80
2018-12-22T09:54:49.559Z,3.70
2018-12-22T09:57:24.445Z,3.20
2018-12-22T09:59:58.990Z,3.80
2018-12-22T10:02:33.469Z,3.80
2018-12-22T10:05:08.319Z,3.70
2018-12-22T10:07:42.526Z,3.20
2018-12-22T10:10:17.032Z,3.17
2018-12-22T10:12:51.337Z,3.40
2018-12-22T10:15:26.162Z,3.27
2018-12-22T10:18:00.627Z,3.50
2018-12-22T10:20:35.876Z,3.70
2018-12-22T10:23:10.465Z,3.53
2018-12-22T10:25:45.124Z,3.30
2018-12-22T10:28:20.216Z,2.47
2018-12-22T10:30:54.702Z,3.10
2018-12-22T10:33:29.198Z,2.80
2018-12-22T10:36:03.598Z,2.80
2018-12-22T10:38:38.092Z,4.77
2018-12-22T10:41:12.910Z,5.10
2018-12-22T10:43:47.525Z,4.60
2018-12-22T10:46:21.937Z,4.50
2018-12-22T10:48:56.527Z,4.50
2018-12-22T10:51:31.064Z,4.70
2018-12-22T10:54:05.821Z,4.60
2018-12-22T10:56:40.435Z,6.10
2018-12-22T10:59:14.841Z,4.10
2018-12-22T11:01:49.665Z,5.23
2018-12-22T11:04:24.259Z,4.73
2018-12-22T11:06:59.151Z,5.60
2018-12-22T11:09:33.553Z,5.70
2018-12-22T11:12:07.806Z,5.27
2018-12-22T11:14:42.138Z,4.83
2018-12-22T11:17:16.895Z,4.43
2018-12-22T11:19:51.645Z,4.63
2018-12-22T11:22:25.894Z,4.37
2018-12-22T11:25:00.698Z,3.90
2018-12-22T11:27:35.441Z,4.60
2018-12-22T11:30:13.354Z,4.93
2018-12-22T11:32:47.574Z,4.17
2018-12-22T11:35:22.007Z,4.90
2018-12-22T11:37:56.243Z,4.07
2018-12-22T11:40:31.496Z,3.43
2018-12-22T11:43:06.614Z,3.50
2018-12-22T11:45:40.975Z,4.00
2018-12-22T11:48:17.235Z,3.47
2018-12-22T11:50:52.059Z,3.97
2018-12-22T11:53:26.601Z,3.73
2018-12-22T11:56:01.059Z,2.97
2018-12-22T11:58:38.228Z,3.60
2018-12-22T12:01:12.723Z,3.37
2018-12-22T12:03:48.038Z,3.23
2018-12-22T12:06:22.896Z,2.77
2018-12-22T12:08:57.706Z,2.67
2018-12-22T12:11:33.318Z,2.93
2018-12-22T12:14:07.787Z,2.70
2018-12-22T12:16:42.185Z,3.13
2018-12-22T12:19:16.419Z,2.60
2018-12-22T12:21:51.240Z,3.37
2018-12-22T12:24:25.666Z,2.40
2018-12-22T12:27:00.415Z,2.37
2018-12-22T12:29:34.823Z,3.60
2018-12-22T12:32:09.347Z,2.77
2018-12-22T12:34:43.974Z,3.10
2018-12-22T12:37:18.461Z,2.60
2018-12-22T12:39:53.569Z,2.33
2018-12-22T12:42:28.100Z,2.60
2018-12-22T12:45:02.355Z,2.40
2018-12-22T12:47:36.892Z,2.50
2018-12-22T12:50:16.298Z,2.20
2018-12-22T12:52:51.053Z,2.87
2018-12-22T12:55:25.693Z,2.50
2018-12-22T12:58:00.016Z,2.40
2018-12-22T13:00:34.413Z,2.00
2018-12-22T13:03:08.893Z,2.50
2018-12-22T13:05:43.299Z,2.40
2018-12-22T13:08:18.195Z,2.73
2018-12-22T13:10:52.821Z,1.93
2018-12-22T13:13:31.076Z,2.97
2018-12-22T13:16:05.771Z,2.13
2018-12-22T13:18:40.588Z,2.03
2018-12-22T13:21:14.882Z,2.70
2018-12-22T13:23:49.687Z,3.23
2018-12-22T13:26:24.465Z,3.20
2018-12-22T13:28:58.696Z,3.80
2018-12-22T13:31:33.142Z,3.87
2018-12-22T13:34:07.812Z,4.00
2018-12-22T13:36:42.541Z,3.33
2018-12-22T13:39:16.826Z,5.57
2018-12-22T13:41:51.579Z,6.70
2018-12-22T13:44:26.254Z,9.20
2018-12-22T13:47:00.713Z,8.20
2018-12-22T13:49:35.421Z,8.57
2018-12-22T13:52:10.021Z,8.30
2018-12-22T13:54:44.612Z,10.10
2018-12-22T13:57:19.065Z,8.00
2018-12-22T13:59:53.366Z,8.73
2018-12-22T14:02:29.010Z,9.53
2018-12-22T14:05:06.998Z,7.47
2018-12-22T14:07:41.416Z,7.60
2018-12-22T14:10:15.844Z,6.77
2018-12-22T14:12:50.348Z,7.20
2018-12-22T14:15:25.040Z,7.93
2018-12-22T14:18:04.240Z,7.00
2018-12-22T14:20:38.674Z,8.27
2018-12-22T14:23:12.910Z,7.00
2018-12-22T14:25:47.225Z,7.03
2018-12-22T14:28:21.603Z,6.43
2018-12-22T14:30:56.177Z,6.03
2018-12-22T14:33:30.844Z,6.80
2018-12-22T14:36:06.524Z,7.73
2018-12-22T14:38:41.534Z,6.53
2018-12-22T14:41:15.949Z,6.57
2018-12-22T14:43:50.282Z,6.23
2018-12-22T14:46:24.814Z,7.97
2018-12-22T14:48:59.412Z,5.23
2018-12-22T14:51:34.357Z,4.90
2018-12-22T14:54:09.281Z,5.27
2018-12-22T14:56:43.522Z,5.80
2018-12-22T14:59:17.735Z,5.90
2018-12-22T15:01:52.336Z,4.90
2018-12-22T15:04:26.797Z,6.57
2018-12-22T15:07:01.620Z,5.63
2018-12-22T15:09:35.838Z,6.97
2018-12-22T15:12:10.077Z,5.33
2018-12-22T15:14:44.350Z,5.57
2018-12-22T15:17:19.084Z,4.50
2018-12-22T15:19:53.307Z,4.47
2018-12-22T15:22:27.911Z,5.23
2018-12-22T15:25:02.301Z,5.10
2018-12-22T15:27:36.677Z,5.17
2018-12-22T15:30:12.619Z,4.83
2018-12-22T15:32:54.432Z,5.37
2018-12-22T15:35:23.580Z,3.73
2018-12-22T15:37:58.597Z,4.23
2018-12-22T15:40:33.467Z,4.60
2018-12-22T15:43:07.850Z,4.90
2018-12-22T15:45:42.157Z,4.10
2018-12-22T15:48:17.353Z,3.23
2018-12-22T15:50:51.675Z,4.70
2018-12-22T15:53:25.890Z,3.57
2018-12-22T15:56:00.382Z,4.40
2018-12-22T15:58:34.967Z,4.50
2018-12-22T16:01:09.426Z,5.10
2018-12-22T16:03:43.903Z,4.17
2018-12-22T16:06:18.216Z,3.13
2018-12-22T16:08:52.682Z,3.63
2018-12-22T16:11:27.148Z,3.87
2018-12-22T16:14:01.654Z,3.73
2018-12-22T16:16:35.973Z,3.77
2018-12-22T16:19:10.325Z,3.97
2018-12-22T16:21:45.190Z,3.63
2018-12-22T16:24:19.573Z,3.03
2018-12-22T16:26:53.939Z,3.80
2018-12-22T16:29:28.317Z,4.17
2018-12-22T16:32:02.701Z,3.33
2018-12-22T16:34:37.545Z,3.20
2018-12-22T16:37:11.893Z,3.10
2018-12-22T16:39:46.141Z,2.90
2018-12-22T16:42:20.423Z,2.90
2018-12-22T16:44:54.703Z,2.93
2018-12-22T16:47:29.043Z,2.57
2018-12-22T16:50:05.595Z,2.60
2018-12-22T16:52:39.802Z,2.73
2018-12-22T16:55:16.030Z,2.83
2018-12-22T16:57:58.453Z,2.40
2018-12-22T17:00:40.301Z,2.83
2018-12-22T17:03:14.890Z,3.03
2018-12-22T17:05:49.411Z,3.10
2018-12-22T17:08:24.256Z,2.73
2018-12-22T17:10:58.983Z,3.03
2018-12-22T17:13:34.438Z,2.47
2018-12-22T17:16:08.943Z,2.90
2018-12-22T17:18:43.174Z,2.13
2018-12-22T17:21:19.910Z,2.93
2018-12-22T17:23:58.497Z,2.70
2018-12-22T17:26:32.989Z,3.13
2018-12-22T17:29:07.384Z,3.13
2018-12-22T17:31:41.825Z,2.90
2018-12-22T17:34:16.542Z,2.50
2018-12-22T17:36:51.060Z,2.50
2018-12-22T17:39:25.630Z,2.40
2018-12-22T17:42:00.086Z,2.30
2018-12-22T17:44:34.581Z,2.33
2018-12-22T17:47:08.975Z,2.30
2018-12-22T17:49:43.367Z,2.83
2018-12-22T17:52:17.862Z,2.10
2018-12-22T17:54:52.280Z,2.40
2018-12-22T17:57:26.655Z,2.77
2018-12-22T18:00:01.089Z,2.90
2018-12-22T18:02:35.878Z,2.53
2018-12-22T18:05:10.363Z,2.97
2018-12-22T18:07:44.728Z,2.53
2018-12-22T18:10:19.459Z,3.10
2018-12-22T18:12:54.073Z,2.63
2018-12-22T18:15:28.904Z,2.27
2018-12-22T18:18:03.624Z,2.10
2018-12-22T18:20:37.965Z,2.30
2018-12-22T18:23:12.487Z,2.67
2018-12-22T18:25:46.934Z,2.83
2018-12-22T18:28:21.468Z,2.40
2018-12-22T18:30:55.879Z,2.40
2018-12-22T18:33:35.967Z,2.57
2018-12-22T18:36:06.478Z,2.50
2018-12-22T18:38:41.050Z,2.60
2018-12-22T18:41:15.454Z,2.10
2018-12-22T18:43:50.034Z,2.50
2018-12-22T18:46:24.294Z,2.57
2018-12-22T18:48:58.925Z,2.10
2018-12-22T18:51:33.423Z,2.00
2018-12-22T18:54:07.974Z,2.40
2018-12-22T18:56:42.801Z,1.83
2018-12-22T18:59:18.176Z,2.90
2018-12-22T19:01:52.552Z,2.60
2018-12-22T19:04:26.992Z,1.50
2018-12-22T19:07:01.523Z,1.77
2018-12-22T19:09:36.049Z,2.40
2018-12-22T19:12:10.446Z,2.27
2018-12-22T19:14:50.826Z,3.00
2018-12-22T19:17:25.347Z,2.43
2018-12-22T19:19:59.877Z,1.90
2018-12-22T19:22:34.193Z,2.20
2018-12-22T19:25:08.774Z,1.90
2018-12-22T19:27:43.268Z,2.20
2018-12-22T19:30:17.956Z,1.70
2018-12-22T19:32:52.585Z,2.57
2018-12-22T19:35:27.067Z,1.90
2018-12-22T19:38:01.565Z,2.30
2018-12-22T19:40:36.170Z,1.93
2018-12-22T19:43:10.385Z,1.90
2018-12-22T19:45:44.890Z,2.03
2018-12-22T19:48:19.332Z,2.13
2018-12-22T19:50:53.818Z,1.57
2018-12-22T19:53:28.543Z,2.03
2018-12-22T19:56:03.200Z,1.83
2018-12-22T19:58:37.716Z,1.80
2018-12-22T20:01:12.011Z,2.50
2018-12-22T20:03:46.542Z,2.40
2018-12-22T20:06:21.003Z,2.33
2018-12-22T20:08:55.510Z,1.73
2018-12-22T20:11:29.842Z,2.13
2018-12-22T20:14:04.353Z,1.90
2018-12-22T20:16:38.877Z,1.80
2018-12-22T20:19:13.472Z,2.13
2018-12-22T20:21:47.851Z,2.30
2018-12-22T20:24:22.328Z,3.50
2018-12-22T20:26:56.692Z,3.83
2018-12-22T20:29:31.175Z,3.43
2018-12-22T20:32:06.026Z,3.70
2018-12-22T20:34:40.740Z,3.30
2018-12-22T20:37:15.214Z,3.70
2018-12-22T20:39:49.563Z,3.40
2018-12-22T20:42:24.116Z,3.43
2018-12-22T20:44:58.635Z,3.40
2018-12-22T20:47:33.092Z,3.60
2018-12-22T20:50:07.430Z,2.53
2018-12-22T20:52:41.910Z,2.60
2018-12-22T20:55:16.410Z,2.30
2018-12-22T20:57:51.660Z,3.60
2018-12-22T21:00:26.415Z,2.50
2018-12-22T21:03:00.806Z,2.13
2018-12-22T21:05:36.629Z,3.27
2018-12-22T21:08:11.242Z,2.93
2018-12-22T21:10:45.597Z,2.37
2018-12-22T21:13:19.987Z,3.00
2018-12-22T21:15:54.450Z,2.13
2018-12-22T21:18:29.198Z,1.90
2018-12-22T21:21:03.683Z,2.10
2018-12-22T21:23:38.066Z,2.60
2018-12-22T21:26:12.705Z,2.30
2018-12-22T21:28:47.337Z,2.23
2018-12-22T21:31:21.822Z,2.50
2018-12-22T21:33:56.117Z,2.90
2018-12-22T21:36:30.512Z,2.40
2018-12-22T21:39:06.156Z,2.57
2018-12-22T21:41:40.624Z,2.40
2018-12-22T21:44:14.960Z,2.23
2018-12-22T21:46:49.701Z,2.37
2018-12-22T21:49:24.138Z,2.13
2018-12-22T21:51:58.624Z,1.87
2018-12-22T21:54:33.092Z,1.90
2018-12-22T21:57:07.444Z,2.27
2018-12-22T21:59:41.893Z,1.77
2018-12-22T22:02:16.168Z,3.00
2018-12-22T22:04:50.483Z,1.90
2018-12-22T22:07:25.216Z,2.13
2018-12-22T22:09:59.701Z,2.67
2018-12-22T22:12:34.456Z,2.70
2018-12-22T22:15:08.865Z,3.20
2018-12-22T22:17:43.070Z,2.70
2018-12-22T22:20:17.527Z,2.77
2018-12-22T22:22:52.327Z,3.33
2018-12-22T22:25:26.815Z,2.80
2018-12-22T22:28:01.276Z,2.90
2018-12-22T22:30:35.830Z,3.50
2018-12-22T22:33:10.622Z,3.30
2018-12-22T22:35:45.001Z,4.03
2018-12-22T22:38:19.482Z,3.70
2018-12-22T22:40:53.810Z,3.43
2018-12-22T22:43:28.508Z,2.80
2018-12-22T22:46:03.029Z,4.00
2018-12-22T22:48:37.467Z,3.60
2018-12-22T22:51:11.928Z,4.10
2018-12-22T22:53:46.451Z,4.70
2018-12-22T22:56:20.839Z,3.73
2018-12-22T22:58:55.317Z,4.10
2018-12-22T23:01:29.860Z,3.87
2018-12-22T23:04:04.576Z,3.93
2018-12-22T23:06:39.214Z,3.60
2018-12-22T23:09:13.581Z,4.17
2018-12-22T23:11:47.828Z,4.43
2018-12-22T23:14:22.114Z,3.10
2018-12-22T23:16:56.555Z,3.77
2018-12-22T23:19:30.901Z,3.87
2018-12-22T23:22:05.387Z,4.43
2018-12-22T23:24:39.650Z,4.90
2018-12-22T23:27:13.893Z,3.40
2018-12-22T23:29:48.164Z,4.27
2018-12-22T23:32:22.392Z,3.70
2018-12-22T23:35:02.952Z,4.00
2018-12-22T23:37:32.950Z,4.07
2018-12-22T23:40:07.223Z,3.23
2018-12-22T23:42:41.472Z,3.57
2018-12-22T23:45:15.872Z,3.87
2018-12-22T23:47:50.398Z,3.67
2018-12-22T23:50:25.017Z,4.97
2018-12-22T23:52:59.221Z,3.83
2018-12-22T23:55:33.585Z,3.40
2018-12-22T23:58:07.913Z,3.30
